sensor_id;sensor_type;location;lat;lon;timestamp;temperature;humidity
909;DHT22;441;51.192;6.788;2022-12-04T00:01:56;19.60;53.60
909;DHT22;441;51.192;6.788;2022-12-04T00:04:23;19.60;53.60
909;DHT22;441;51.192;6.788;2022-12-04T00:06:53;19.50;53.60
909;DHT22;441;51.192;6.788;2022-12-04T00:09:20;19.50;53.60
909;DHT22;441;51.192;6.788;2022-12-04T00:11:47;19.50;53.60
909;DHT22;441;51.192;6.788;2022-12-04T00:14:16;19.50;53.60
909;DHT22;441;51.192;6.788;2022-12-04T00:16:43;19.50;53.60
909;DHT22;441;51.192;6.788;2022-12-04T00:19:09;19.50;53.70
909;DHT22;441;51.192;6.788;2022-12-04T00:21:36;19.50;53.60
909;DHT22;441;51.192;6.788;2022-12-04T00:24:04;19.50;53.60
909;DHT22;441;51.192;6.788;2022-12-04T00:26:31;19.40;53.60
909;DHT22;441;51.192;6.788;2022-12-04T00:28:58;19.40;53.70
909;DHT22;441;51.192;6.788;2022-12-04T00:31:28;19.40;53.70
909;DHT22;441;51.192;6.788;2022-12-04T00:33:56;19.40;53.80
909;DHT22;441;51.192;6.788;2022-12-04T00:36:24;19.40;53.90
909;DHT22;441;51.192;6.788;2022-12-04T00:38:52;19.30;53.80
909;DHT22;441;51.192;6.788;2022-12-04T00:41:22;19.30;53.80
909;DHT22;441;51.192;6.788;2022-12-04T00:43:49;19.30;53.80
909;DHT22;441;51.192;6.788;2022-12-04T00:46:16;19.30;53.90
909;DHT22;441;51.192;6.788;2022-12-04T00:48:44;19.30;53.90
909;DHT22;441;51.192;6.788;2022-12-04T00:51:13;19.30;53.90
909;DHT22;441;51.192;6.788;2022-12-04T00:53:40;19.30;53.90
909;DHT22;441;51.192;6.788;2022-12-04T00:56:10;19.30;53.90
909;DHT22;441;51.192;6.788;2022-12-04T00:58:37;19.30;54.00
909;DHT22;441;51.192;6.788;2022-12-04T01:01:05;19.30;54.00
909;DHT22;441;51.192;6.788;2022-12-04T01:03:33;19.30;54.00
909;DHT22;441;51.192;6.788;2022-12-04T01:06:01;19.30;54.00
909;DHT22;441;51.192;6.788;2022-12-04T01:08:28;19.30;54.00
909;DHT22;441;51.192;6.788;2022-12-04T01:10:55;19.30;54.00
909;DHT22;441;51.192;6.788;2022-12-04T01:13:23;19.30;54.10
909;DHT22;441;51.192;6.788;2022-12-04T01:15:50;19.20;54.00
909;DHT22;441;51.192;6.788;2022-12-04T01:18:17;19.20;54.00
909;DHT22;441;51.192;6.788;2022-12-04T01:20:46;19.20;54.00
909;DHT22;441;51.192;6.788;2022-12-04T01:23:16;19.20;54.00
909;DHT22;441;51.192;6.788;2022-12-04T01:25:50;19.20;54.00
909;DHT22;441;51.192;6.788;2022-12-04T01:28:17;19.20;54.00
909;DHT22;441;51.192;6.788;2022-12-04T01:30:44;19.20;54.00
909;DHT22;441;51.192;6.788;2022-12-04T01:33:11;19.20;54.00
909;DHT22;441;51.192;6.788;2022-12-04T01:35:38;19.20;54.00
909;DHT22;441;51.192;6.788;2022-12-04T01:38:04;19.20;54.00
909;DHT22;441;51.192;6.788;2022-12-04T01:40:33;19.20;53.90
909;DHT22;441;51.192;6.788;2022-12-04T01:42:59;19.20;54.00
909;DHT22;441;51.192;6.788;2022-12-04T01:45:40;19.10;53.80
909;DHT22;441;51.192;6.788;2022-12-04T01:48:15;19.10;53.90
909;DHT22;441;51.192;6.788;2022-12-04T01:50:43;19.10;53.90
909;DHT22;441;51.192;6.788;2022-12-04T01:53:11;19.10;53.90
909;DHT22;441;51.192;6.788;2022-12-04T01:55:41;19.10;54.50
909;DHT22;441;51.192;6.788;2022-12-04T01:58:09;19.10;53.90
909;DHT22;441;51.192;6.788;2022-12-04T02:00:36;19.10;54.50
909;DHT22;441;51.192;6.788;2022-12-04T02:03:03;19.10;54.00
909;DHT22;441;51.192;6.788;2022-12-04T02:05:30;19.10;54.00
909;DHT22;441;51.192;6.788;2022-12-04T02:07:59;19.10;54.00
909;DHT22;441;51.192;6.788;2022-12-04T02:10:38;19.10;53.90
909;DHT22;441;51.192;6.788;2022-12-04T02:13:13;19.00;53.90
909;DHT22;441;51.192;6.788;2022-12-04T02:15:47;19.00;53.90
909;DHT22;441;51.192;6.788;2022-12-04T02:18:24;19.00;53.90
909;DHT22;441;51.192;6.788;2022-12-04T02:21:00;19.00;53.90
909;DHT22;441;51.192;6.788;2022-12-04T02:23:41;19.00;54.00
909;DHT22;441;51.192;6.788;2022-12-04T02:26:24;19.00;54.00
909;DHT22;441;51.192;6.788;2022-12-04T02:28:58;18.90;54.00
909;DHT22;441;51.192;6.788;2022-12-04T02:31:31;19.00;54.10
909;DHT22;441;51.192;6.788;2022-12-04T02:34:02;18.90;54.10
909;DHT22;441;51.192;6.788;2022-12-04T02:36:34;18.90;54.60
909;DHT22;441;51.192;6.788;2022-12-04T02:39:08;18.90;54.10
909;DHT22;441;51.192;6.788;2022-12-04T02:41:40;19.00;54.20
909;DHT22;441;51.192;6.788;2022-12-04T02:44:14;18.90;54.10
909;DHT22;441;51.192;6.788;2022-12-04T02:46:44;18.90;54.60
909;DHT22;441;51.192;6.788;2022-12-04T02:49:17;18.90;54.00
909;DHT22;441;51.192;6.788;2022-12-04T02:51:46;18.90;54.10
909;DHT22;441;51.192;6.788;2022-12-04T02:54:19;18.90;54.10
909;DHT22;441;51.192;6.788;2022-12-04T02:56:49;18.90;54.10
909;DHT22;441;51.192;6.788;2022-12-04T02:59:22;18.90;54.10
909;DHT22;441;51.192;6.788;2022-12-04T03:01:54;18.90;54.10
909;DHT22;441;51.192;6.788;2022-12-04T03:04:25;18.90;54.10
909;DHT22;441;51.192;6.788;2022-12-04T03:06:55;18.90;54.10
909;DHT22;441;51.192;6.788;2022-12-04T03:09:27;18.90;54.10
909;DHT22;441;51.192;6.788;2022-12-04T03:12:00;18.90;54.20
909;DHT22;441;51.192;6.788;2022-12-04T03:14:34;18.90;54.10
909;DHT22;441;51.192;6.788;2022-12-04T03:17:05;18.90;54.20
909;DHT22;441;51.192;6.788;2022-12-04T03:19:38;18.90;54.10
909;DHT22;441;51.192;6.788;2022-12-04T03:22:09;18.90;54.10
909;DHT22;441;51.192;6.788;2022-12-04T03:24:39;18.90;54.10
909;DHT22;441;51.192;6.788;2022-12-04T03:27:10;18.80;54.10
909;DHT22;441;51.192;6.788;2022-12-04T03:29:42;18.80;54.10
909;DHT22;441;51.192;6.788;2022-12-04T03:32:12;18.80;54.00
909;DHT22;441;51.192;6.788;2022-12-04T03:34:49;18.80;54.10
909;DHT22;441;51.192;6.788;2022-12-04T03:37:19;18.80;54.10
909;DHT22;441;51.192;6.788;2022-12-04T03:39:55;18.80;54.10
909;DHT22;441;51.192;6.788;2022-12-04T03:42:25;18.80;54.10
909;DHT22;441;51.192;6.788;2022-12-04T03:44:59;18.80;54.10
909;DHT22;441;51.192;6.788;2022-12-04T03:47:33;18.80;54.10
909;DHT22;441;51.192;6.788;2022-12-04T03:50:05;18.80;54.60
909;DHT22;441;51.192;6.788;2022-12-04T03:52:39;18.80;54.10
909;DHT22;441;51.192;6.788;2022-12-04T03:55:14;18.80;54.10
909;DHT22;441;51.192;6.788;2022-12-04T03:57:47;18.80;54.10
909;DHT22;441;51.192;6.788;2022-12-04T04:00:19;18.80;54.10
909;DHT22;441;51.192;6.788;2022-12-04T04:02:53;18.80;54.20
909;DHT22;441;51.192;6.788;2022-12-04T04:05:24;18.70;54.20
909;DHT22;441;51.192;6.788;2022-12-04T04:07:53;18.70;54.20
909;DHT22;441;51.192;6.788;2022-12-04T04:10:23;18.70;54.20
909;DHT22;441;51.192;6.788;2022-12-04T04:12:53;18.70;54.20
909;DHT22;441;51.192;6.788;2022-12-04T04:15:42;18.70;54.20
909;DHT22;441;51.192;6.788;2022-12-04T04:18:28;18.70;54.20
909;DHT22;441;51.192;6.788;2022-12-04T04:21:17;18.70;54.20
909;DHT22;441;51.192;6.788;2022-12-04T04:24:03;18.70;54.20
909;DHT22;441;51.192;6.788;2022-12-04T04:26:44;18.70;54.30
909;DHT22;441;51.192;6.788;2022-12-04T04:29:12;18.70;54.30
909;DHT22;441;51.192;6.788;2022-12-04T04:31:42;18.70;54.30
909;DHT22;441;51.192;6.788;2022-12-04T04:34:18;18.70;54.30
909;DHT22;441;51.192;6.788;2022-12-04T04:36:52;18.70;54.30
909;DHT22;441;51.192;6.788;2022-12-04T04:39:26;18.70;54.30
909;DHT22;441;51.192;6.788;2022-12-04T04:41:59;18.70;54.40
909;DHT22;441;51.192;6.788;2022-12-04T04:44:33;18.70;54.20
909;DHT22;441;51.192;6.788;2022-12-04T04:47:06;18.70;54.20
909;DHT22;441;51.192;6.788;2022-12-04T04:49:38;18.70;54.30
909;DHT22;441;51.192;6.788;2022-12-04T04:52:07;18.70;54.20
909;DHT22;441;51.192;6.788;2022-12-04T04:54:35;18.70;54.20
909;DHT22;441;51.192;6.788;2022-12-04T04:57:02;18.70;54.20
909;DHT22;441;51.192;6.788;2022-12-04T04:59:29;18.70;54.20
909;DHT22;441;51.192;6.788;2022-12-04T05:01:56;18.70;54.20
909;DHT22;441;51.192;6.788;2022-12-04T05:04:25;18.70;54.30
909;DHT22;441;51.192;6.788;2022-12-04T05:06:52;18.60;54.20
909;DHT22;441;51.192;6.788;2022-12-04T05:09:19;18.60;54.20
909;DHT22;441;51.192;6.788;2022-12-04T05:11:45;18.60;54.20
909;DHT22;441;51.192;6.788;2022-12-04T05:14:12;18.60;54.20
909;DHT22;441;51.192;6.788;2022-12-04T05:16:39;18.60;54.20
909;DHT22;441;51.192;6.788;2022-12-04T05:19:06;18.60;54.20
909;DHT22;441;51.192;6.788;2022-12-04T05:21:52;18.60;54.20
909;DHT22;441;51.192;6.788;2022-12-04T05:24:21;18.60;54.20
909;DHT22;441;51.192;6.788;2022-12-04T05:26:48;18.60;54.20
909;DHT22;441;51.192;6.788;2022-12-04T05:29:15;18.60;54.20
909;DHT22;441;51.192;6.788;2022-12-04T05:31:42;18.60;54.20
909;DHT22;441;51.192;6.788;2022-12-04T05:34:09;18.60;54.20
909;DHT22;441;51.192;6.788;2022-12-04T05:36:36;18.60;54.20
909;DHT22;441;51.192;6.788;2022-12-04T05:39:04;18.60;54.20
909;DHT22;441;51.192;6.788;2022-12-04T05:41:31;18.60;54.10
909;DHT22;441;51.192;6.788;2022-12-04T05:43:58;18.60;54.10
909;DHT22;441;51.192;6.788;2022-12-04T05:46:25;18.60;54.10
909;DHT22;441;51.192;6.788;2022-12-04T05:48:51;18.60;54.10
909;DHT22;441;51.192;6.788;2022-12-04T05:51:18;18.60;54.10
909;DHT22;441;51.192;6.788;2022-12-04T05:53:45;18.60;54.00
909;DHT22;441;51.192;6.788;2022-12-04T05:56:13;18.60;54.00
909;DHT22;441;51.192;6.788;2022-12-04T05:58:40;18.60;54.10
909;DHT22;441;51.192;6.788;2022-12-04T06:01:09;18.60;54.00
909;DHT22;441;51.192;6.788;2022-12-04T06:03:35;18.50;54.00
909;DHT22;441;51.192;6.788;2022-12-04T06:06:02;18.60;54.00
909;DHT22;441;51.192;6.788;2022-12-04T06:08:30;18.50;53.90
909;DHT22;441;51.192;6.788;2022-12-04T06:10:57;18.50;54.00
909;DHT22;441;51.192;6.788;2022-12-04T06:13:25;18.50;54.00
909;DHT22;441;51.192;6.788;2022-12-04T06:15:52;18.50;54.00
909;DHT22;441;51.192;6.788;2022-12-04T06:18:19;18.50;54.00
909;DHT22;441;51.192;6.788;2022-12-04T06:20:46;18.50;54.00
909;DHT22;441;51.192;6.788;2022-12-04T06:23:12;18.50;54.00
909;DHT22;441;51.192;6.788;2022-12-04T06:25:39;18.50;54.10
909;DHT22;441;51.192;6.788;2022-12-04T06:28:06;18.50;54.10
909;DHT22;441;51.192;6.788;2022-12-04T06:30:34;18.50;54.10
909;DHT22;441;51.192;6.788;2022-12-04T06:33:01;18.50;54.10
909;DHT22;441;51.192;6.788;2022-12-04T06:35:28;18.50;54.10
909;DHT22;441;51.192;6.788;2022-12-04T06:37:55;18.50;54.20
909;DHT22;441;51.192;6.788;2022-12-04T06:40:22;18.50;54.20
909;DHT22;441;51.192;6.788;2022-12-04T06:42:49;18.50;54.20
909;DHT22;441;51.192;6.788;2022-12-04T06:45:16;18.50;54.20
909;DHT22;441;51.192;6.788;2022-12-04T06:47:45;18.50;54.20
909;DHT22;441;51.192;6.788;2022-12-04T06:50:11;18.50;54.20
909;DHT22;441;51.192;6.788;2022-12-04T06:52:38;18.50;54.20
909;DHT22;441;51.192;6.788;2022-12-04T06:55:06;18.50;54.70
909;DHT22;441;51.192;6.788;2022-12-04T06:57:33;18.50;54.20
909;DHT22;441;51.192;6.788;2022-12-04T07:00:00;18.50;54.20
909;DHT22;441;51.192;6.788;2022-12-04T07:02:26;18.50;54.20
909;DHT22;441;51.192;6.788;2022-12-04T07:04:55;18.50;54.20
909;DHT22;441;51.192;6.788;2022-12-04T07:07:22;18.50;54.20
909;DHT22;441;51.192;6.788;2022-12-04T07:09:49;18.50;54.10
909;DHT22;441;51.192;6.788;2022-12-04T07:12:16;18.60;54.10
909;DHT22;441;51.192;6.788;2022-12-04T07:14:43;18.70;54.60
909;DHT22;441;51.192;6.788;2022-12-04T07:17:10;18.70;55.00
909;DHT22;441;51.192;6.788;2022-12-04T07:19:36;18.80;54.80
909;DHT22;441;51.192;6.788;2022-12-04T07:22:05;18.90;55.40
909;DHT22;441;51.192;6.788;2022-12-04T07:24:34;19.00;55.40
909;DHT22;441;51.192;6.788;2022-12-04T07:27:03;19.10;56.20
909;DHT22;441;51.192;6.788;2022-12-04T07:29:30;19.20;55.90
909;DHT22;441;51.192;6.788;2022-12-04T07:31:57;19.30;55.20
909;DHT22;441;51.192;6.788;2022-12-04T07:34:24;19.30;54.70
909;DHT22;441;51.192;6.788;2022-12-04T07:36:50;19.40;54.60
909;DHT22;441;51.192;6.788;2022-12-04T07:39:19;19.40;54.60
909;DHT22;441;51.192;6.788;2022-12-04T07:41:45;19.50;54.60
909;DHT22;441;51.192;6.788;2022-12-04T07:44:12;19.60;54.20
909;DHT22;441;51.192;6.788;2022-12-04T07:46:39;19.60;54.00
909;DHT22;441;51.192;6.788;2022-12-04T07:49:06;19.70;54.40
909;DHT22;441;51.192;6.788;2022-12-04T07:51:33;19.70;54.30
909;DHT22;441;51.192;6.788;2022-12-04T07:53:59;19.70;54.00
909;DHT22;441;51.192;6.788;2022-12-04T07:56:27;19.70;54.20
909;DHT22;441;51.192;6.788;2022-12-04T07:58:55;19.80;54.40
909;DHT22;441;51.192;6.788;2022-12-04T08:01:22;19.80;54.20
909;DHT22;441;51.192;6.788;2022-12-04T08:03:51;19.80;54.00
909;DHT22;441;51.192;6.788;2022-12-04T08:06:19;19.90;53.90
909;DHT22;441;51.192;6.788;2022-12-04T08:08:47;19.90;53.70
909;DHT22;441;51.192;6.788;2022-12-04T08:11:17;19.90;53.20
909;DHT22;441;51.192;6.788;2022-12-04T08:13:45;20.00;53.00
909;DHT22;441;51.192;6.788;2022-12-04T08:16:12;19.90;53.40
909;DHT22;441;51.192;6.788;2022-12-04T08:18:40;19.90;54.00
909;DHT22;441;51.192;6.788;2022-12-04T08:21:13;20.00;54.50
909;DHT22;441;51.192;6.788;2022-12-04T08:23:41;20.00;54.50
909;DHT22;441;51.192;6.788;2022-12-04T08:26:09;20.00;54.50
909;DHT22;441;51.192;6.788;2022-12-04T08:28:36;20.00;54.50
909;DHT22;441;51.192;6.788;2022-12-04T08:31:06;20.00;54.60
909;DHT22;441;51.192;6.788;2022-12-04T08:33:33;20.00;54.30
909;DHT22;441;51.192;6.788;2022-12-04T08:36:01;20.00;54.30
909;DHT22;441;51.192;6.788;2022-12-04T08:38:31;20.00;54.90
909;DHT22;441;51.192;6.788;2022-12-04T08:40:58;20.00;54.30
909;DHT22;441;51.192;6.788;2022-12-04T08:43:25;20.00;54.20
909;DHT22;441;51.192;6.788;2022-12-04T08:45:56;20.00;54.20
909;DHT22;441;51.192;6.788;2022-12-04T08:48:25;20.00;54.00
909;DHT22;441;51.192;6.788;2022-12-04T08:50:52;20.10;53.60
909;DHT22;441;51.192;6.788;2022-12-04T08:53:19;20.20;53.60
909;DHT22;441;51.192;6.788;2022-12-04T08:55:46;20.20;53.50
909;DHT22;441;51.192;6.788;2022-12-04T08:58:13;20.20;53.20
909;DHT22;441;51.192;6.788;2022-12-04T09:00:40;20.20;53.00
909;DHT22;441;51.192;6.788;2022-12-04T09:03:08;20.20;52.90
909;DHT22;441;51.192;6.788;2022-12-04T09:05:39;20.20;52.90
909;DHT22;441;51.192;6.788;2022-12-04T09:08:06;20.30;52.90
909;DHT22;441;51.192;6.788;2022-12-04T09:10:33;20.30;53.00
909;DHT22;441;51.192;6.788;2022-12-04T09:13:00;20.20;52.80
909;DHT22;441;51.192;6.788;2022-12-04T09:15:27;20.20;52.70
909;DHT22;441;51.192;6.788;2022-12-04T09:17:53;20.20;52.70
909;DHT22;441;51.192;6.788;2022-12-04T09:20:20;20.20;52.80
909;DHT22;441;51.192;6.788;2022-12-04T09:22:49;20.20;52.80
909;DHT22;441;51.192;6.788;2022-12-04T09:25:16;20.20;53.20
909;DHT22;441;51.192;6.788;2022-12-04T09:27:43;20.20;52.60
909;DHT22;441;51.192;6.788;2022-12-04T09:30:11;20.20;52.60
909;DHT22;441;51.192;6.788;2022-12-04T09:32:38;20.30;52.60
909;DHT22;441;51.192;6.788;2022-12-04T09:35:06;20.30;52.30
909;DHT22;441;51.192;6.788;2022-12-04T09:37:33;20.30;52.10
909;DHT22;441;51.192;6.788;2022-12-04T09:40:03;20.30;52.00
909;DHT22;441;51.192;6.788;2022-12-04T09:42:41;20.30;51.90
909;DHT22;441;51.192;6.788;2022-12-04T09:45:14;20.20;51.70
909;DHT22;441;51.192;6.788;2022-12-04T09:47:45;20.30;51.80
909;DHT22;441;51.192;6.788;2022-12-04T09:50:17;20.30;52.00
909;DHT22;441;51.192;6.788;2022-12-04T09:52:49;20.30;52.00
909;DHT22;441;51.192;6.788;2022-12-04T09:55:24;20.40;52.00
909;DHT22;441;51.192;6.788;2022-12-04T09:57:54;20.40;51.80
909;DHT22;441;51.192;6.788;2022-12-04T10:00:24;20.50;52.60
909;DHT22;441;51.192;6.788;2022-12-04T10:02:56;20.70;52.60
909;DHT22;441;51.192;6.788;2022-12-04T10:05:39;20.80;52.30
909;DHT22;441;51.192;6.788;2022-12-04T10:08:13;20.90;52.60
909;DHT22;441;51.192;6.788;2022-12-04T10:10:46;21.00;53.30
909;DHT22;441;51.192;6.788;2022-12-04T10:13:27;21.10;52.90
909;DHT22;441;51.192;6.788;2022-12-04T10:16:06;21.20;52.90
909;DHT22;441;51.192;6.788;2022-12-04T10:18:45;21.30;52.50
909;DHT22;441;51.192;6.788;2022-12-04T10:21:28;21.30;52.70
909;DHT22;441;51.192;6.788;2022-12-04T10:24:10;21.50;53.00
909;DHT22;441;51.192;6.788;2022-12-04T10:26:46;21.50;52.20
909;DHT22;441;51.192;6.788;2022-12-04T10:29:18;21.60;52.50
909;DHT22;441;51.192;6.788;2022-12-04T10:31:47;21.70;52.10
909;DHT22;441;51.192;6.788;2022-12-04T10:34:17;21.80;51.80
909;DHT22;441;51.192;6.788;2022-12-04T10:36:50;21.90;51.60
909;DHT22;441;51.192;6.788;2022-12-04T10:39:22;21.90;51.30
909;DHT22;441;51.192;6.788;2022-12-04T10:41:56;22.00;51.10
909;DHT22;441;51.192;6.788;2022-12-04T10:44:23;22.10;51.00
909;DHT22;441;51.192;6.788;2022-12-04T10:46:54;22.10;51.00
909;DHT22;441;51.192;6.788;2022-12-04T10:49:25;22.20;51.50
909;DHT22;441;51.192;6.788;2022-12-04T10:51:53;22.30;51.40
909;DHT22;441;51.192;6.788;2022-12-04T10:54:21;22.40;51.10
909;DHT22;441;51.192;6.788;2022-12-04T10:56:54;22.50;50.70
909;DHT22;441;51.192;6.788;2022-12-04T10:59:21;22.50;51.00
909;DHT22;441;51.192;6.788;2022-12-04T11:01:48;22.50;50.30
909;DHT22;441;51.192;6.788;2022-12-04T11:04:21;22.60;50.20
909;DHT22;441;51.192;6.788;2022-12-04T11:06:50;22.60;50.10
909;DHT22;441;51.192;6.788;2022-12-04T11:09:23;22.70;50.10
909;DHT22;441;51.192;6.788;2022-12-04T11:11:52;22.70;50.10
909;DHT22;441;51.192;6.788;2022-12-04T11:14:20;22.80;49.90
909;DHT22;441;51.192;6.788;2022-12-04T11:16:49;22.80;49.90
909;DHT22;441;51.192;6.788;2022-12-04T11:19:26;22.90;50.10
909;DHT22;441;51.192;6.788;2022-12-04T11:21:55;22.90;49.80
909;DHT22;441;51.192;6.788;2022-12-04T11:24:24;22.90;49.60
909;DHT22;441;51.192;6.788;2022-12-04T11:26:53;22.90;49.00
909;DHT22;441;51.192;6.788;2022-12-04T11:29:29;23.00;49.60
909;DHT22;441;51.192;6.788;2022-12-04T11:31:57;23.10;50.00
909;DHT22;441;51.192;6.788;2022-12-04T11:34:29;23.10;49.90
909;DHT22;441;51.192;6.788;2022-12-04T11:36:58;23.20;49.50
909;DHT22;441;51.192;6.788;2022-12-04T11:39:30;23.20;49.30
909;DHT22;441;51.192;6.788;2022-12-04T11:42:01;23.20;49.30
909;DHT22;441;51.192;6.788;2022-12-04T11:44:31;23.30;48.80
909;DHT22;441;51.192;6.788;2022-12-04T11:47:00;23.30;48.80
909;DHT22;441;51.192;6.788;2022-12-04T11:49:28;23.30;49.10
909;DHT22;441;51.192;6.788;2022-12-04T11:52:08;23.40;49.00
909;DHT22;441;51.192;6.788;2022-12-04T11:54:47;23.40;48.80
909;DHT22;441;51.192;6.788;2022-12-04T11:57:25;23.40;49.10
909;DHT22;441;51.192;6.788;2022-12-04T12:00:03;23.40;49.40
909;DHT22;441;51.192;6.788;2022-12-04T12:05:48;23.30;48.80
909;DHT22;441;51.192;6.788;2022-12-04T12:08:27;23.30;48.60
909;DHT22;441;51.192;6.788;2022-12-04T12:11:01;23.30;48.40
909;DHT22;441;51.192;6.788;2022-12-04T12:13:38;23.40;48.70
909;DHT22;441;51.192;6.788;2022-12-04T12:16:14;23.40;48.80
909;DHT22;441;51.192;6.788;2022-12-04T12:18:53;23.40;48.70
909;DHT22;441;51.192;6.788;2022-12-04T12:21:25;23.40;49.00
909;DHT22;441;51.192;6.788;2022-12-04T12:24:14;23.40;48.90
909;DHT22;441;51.192;6.788;2022-12-04T12:26:50;23.40;48.60
909;DHT22;441;51.192;6.788;2022-12-04T12:29:31;23.40;49.00
909;DHT22;441;51.192;6.788;2022-12-04T12:32:22;23.40;48.50
909;DHT22;441;51.192;6.788;2022-12-04T12:34:52;23.40;48.20
909;DHT22;441;51.192;6.788;2022-12-04T12:37:24;23.50;48.20
909;DHT22;441;51.192;6.788;2022-12-04T12:39:58;23.40;48.10
909;DHT22;441;51.192;6.788;2022-12-04T12:42:31;23.40;48.30
909;DHT22;441;51.192;6.788;2022-12-04T12:45:05;23.40;48.10
909;DHT22;441;51.192;6.788;2022-12-04T12:47:38;23.50;48.10
909;DHT22;441;51.192;6.788;2022-12-04T12:50:12;23.50;48.30
909;DHT22;441;51.192;6.788;2022-12-04T12:52:45;23.50;48.50
909;DHT22;441;51.192;6.788;2022-12-04T12:55:15;23.50;48.00
909;DHT22;441;51.192;6.788;2022-12-04T12:57:46;23.50;47.80
909;DHT22;441;51.192;6.788;2022-12-04T13:00:18;23.60;48.40
909;DHT22;441;51.192;6.788;2022-12-04T13:02:48;23.60;48.30
909;DHT22;441;51.192;6.788;2022-12-04T13:05:20;23.60;48.30
909;DHT22;441;51.192;6.788;2022-12-04T13:07:58;23.60;48.60
909;DHT22;441;51.192;6.788;2022-12-04T13:10:30;23.70;48.20
909;DHT22;441;51.192;6.788;2022-12-04T13:13:03;23.70;48.40
909;DHT22;441;51.192;6.788;2022-12-04T13:15:38;23.60;47.60
909;DHT22;441;51.192;6.788;2022-12-04T13:18:07;23.50;47.40
909;DHT22;441;51.192;6.788;2022-12-04T13:20:49;23.50;47.40
909;DHT22;441;51.192;6.788;2022-12-04T13:23:43;23.40;47.30
909;DHT22;441;51.192;6.788;2022-12-04T13:26:33;23.50;48.90
909;DHT22;441;51.192;6.788;2022-12-04T13:29:10;23.50;49.20
909;DHT22;441;51.192;6.788;2022-12-04T13:31:47;23.60;49.10
909;DHT22;441;51.192;6.788;2022-12-04T13:34:33;23.70;49.50
909;DHT22;441;51.192;6.788;2022-12-04T13:37:44;23.70;48.70
909;DHT22;441;51.192;6.788;2022-12-04T13:40:32;23.70;48.20
909;DHT22;441;51.192;6.788;2022-12-04T13:43:22;23.80;48.20
909;DHT22;441;51.192;6.788;2022-12-04T13:45:52;23.70;47.90
909;DHT22;441;51.192;6.788;2022-12-04T13:48:34;23.70;48.00
909;DHT22;441;51.192;6.788;2022-12-04T13:54:26;23.40;45.60
909;DHT22;441;51.192;6.788;2022-12-04T13:56:55;23.50;46.90
909;DHT22;441;51.192;6.788;2022-12-04T13:59:33;23.60;47.40
909;DHT22;441;51.192;6.788;2022-12-04T14:02:02;23.80;47.40
909;DHT22;441;51.192;6.788;2022-12-04T14:04:43;23.80;47.20
909;DHT22;441;51.192;6.788;2022-12-04T14:07:23;23.90;47.00
909;DHT22;441;51.192;6.788;2022-12-04T14:09:52;23.90;47.40
909;DHT22;441;51.192;6.788;2022-12-04T14:12:25;23.90;46.90
909;DHT22;441;51.192;6.788;2022-12-04T14:14:54;23.80;46.80
909;DHT22;441;51.192;6.788;2022-12-04T14:17:24;23.80;46.80
909;DHT22;441;51.192;6.788;2022-12-04T14:19:54;23.80;47.30
909;DHT22;441;51.192;6.788;2022-12-04T14:22:37;23.80;47.40
909;DHT22;441;51.192;6.788;2022-12-04T14:25:17;23.70;46.80
909;DHT22;441;51.192;6.788;2022-12-04T14:27:48;23.70;46.70
909;DHT22;441;51.192;6.788;2022-12-04T14:30:18;23.80;47.00
909;DHT22;441;51.192;6.788;2022-12-04T14:32:47;23.70;46.80
909;DHT22;441;51.192;6.788;2022-12-04T14:35:19;23.70;46.80
909;DHT22;441;51.192;6.788;2022-12-04T14:37:51;23.70;46.60
909;DHT22;441;51.192;6.788;2022-12-04T14:40:22;23.60;46.50
909;DHT22;441;51.192;6.788;2022-12-04T14:42:50;23.60;46.60
909;DHT22;441;51.192;6.788;2022-12-04T14:45:28;23.60;47.00
909;DHT22;441;51.192;6.788;2022-12-04T14:48:22;23.60;47.60
909;DHT22;441;51.192;6.788;2022-12-04T14:51:01;23.70;47.80
909;DHT22;441;51.192;6.788;2022-12-04T14:53:35;23.60;47.30
909;DHT22;441;51.192;6.788;2022-12-04T14:56:17;23.70;47.10
909;DHT22;441;51.192;6.788;2022-12-04T14:58:45;23.70;47.10
909;DHT22;441;51.192;6.788;2022-12-04T15:01:19;23.80;47.10
909;DHT22;441;51.192;6.788;2022-12-04T15:03:48;23.70;46.80
909;DHT22;441;51.192;6.788;2022-12-04T15:06:20;23.70;46.90
909;DHT22;441;51.192;6.788;2022-12-04T15:08:48;23.70;46.30
909;DHT22;441;51.192;6.788;2022-12-04T15:11:18;23.60;44.70
909;DHT22;441;51.192;6.788;2022-12-04T15:14:11;23.60;47.30
909;DHT22;441;51.192;6.788;2022-12-04T15:16:39;23.60;47.80
909;DHT22;441;51.192;6.788;2022-12-04T15:19:15;23.60;47.00
909;DHT22;441;51.192;6.788;2022-12-04T15:21:44;23.60;46.70
909;DHT22;441;51.192;6.788;2022-12-04T15:24:17;23.70;46.70
909;DHT22;441;51.192;6.788;2022-12-04T15:26:48;23.70;46.80
909;DHT22;441;51.192;6.788;2022-12-04T15:29:19;23.70;47.10
909;DHT22;441;51.192;6.788;2022-12-04T15:31:49;23.70;46.60
909;DHT22;441;51.192;6.788;2022-12-04T15:34:24;23.60;45.40
909;DHT22;441;51.192;6.788;2022-12-04T15:36:58;23.50;44.90
909;DHT22;441;51.192;6.788;2022-12-04T15:39:28;23.40;45.00
909;DHT22;441;51.192;6.788;2022-12-04T15:42:03;23.40;45.30
909;DHT22;441;51.192;6.788;2022-12-04T15:44:32;23.30;45.30
909;DHT22;441;51.192;6.788;2022-12-04T15:47:01;23.30;45.30
909;DHT22;441;51.192;6.788;2022-12-04T15:49:30;23.30;45.40
909;DHT22;441;51.192;6.788;2022-12-04T15:52:06;23.20;45.40
909;DHT22;441;51.192;6.788;2022-12-04T15:54:33;23.30;47.30
909;DHT22;441;51.192;6.788;2022-12-04T15:57:03;23.40;47.50
909;DHT22;441;51.192;6.788;2022-12-04T15:59:33;23.40;47.60
909;DHT22;441;51.192;6.788;2022-12-04T16:02:06;23.50;47.60
909;DHT22;441;51.192;6.788;2022-12-04T16:04:34;23.50;47.00
909;DHT22;441;51.192;6.788;2022-12-04T16:07:01;23.50;46.80
909;DHT22;441;51.192;6.788;2022-12-04T16:09:30;23.50;47.40
909;DHT22;441;51.192;6.788;2022-12-04T16:11:58;23.50;46.80
909;DHT22;441;51.192;6.788;2022-12-04T16:14:25;23.60;46.40
909;DHT22;441;51.192;6.788;2022-12-04T16:16:54;23.60;46.30
909;DHT22;441;51.192;6.788;2022-12-04T16:19:29;23.60;46.10
909;DHT22;441;51.192;6.788;2022-12-04T16:21:57;23.60;46.10
909;DHT22;441;51.192;6.788;2022-12-04T16:24:24;23.70;46.50
909;DHT22;441;51.192;6.788;2022-12-04T16:26:54;23.70;46.40
909;DHT22;441;51.192;6.788;2022-12-04T16:29:21;23.70;47.10
909;DHT22;441;51.192;6.788;2022-12-04T16:31:49;23.80;46.70
909;DHT22;441;51.192;6.788;2022-12-04T16:34:16;23.80;46.70
909;DHT22;441;51.192;6.788;2022-12-04T16:36:43;23.90;46.70
909;DHT22;441;51.192;6.788;2022-12-04T16:39:10;24.00;46.50
909;DHT22;441;51.192;6.788;2022-12-04T16:41:37;24.10;46.60
909;DHT22;441;51.192;6.788;2022-12-04T16:44:12;24.00;46.40
909;DHT22;441;51.192;6.788;2022-12-04T16:46:39;24.10;46.30
909;DHT22;441;51.192;6.788;2022-12-04T16:49:07;24.20;46.20
909;DHT22;441;51.192;6.788;2022-12-04T16:51:36;24.30;46.20
909;DHT22;441;51.192;6.788;2022-12-04T16:54:04;24.40;46.10
909;DHT22;441;51.192;6.788;2022-12-04T16:56:31;24.50;46.20
909;DHT22;441;51.192;6.788;2022-12-04T16:58:58;24.60;46.20
909;DHT22;441;51.192;6.788;2022-12-04T17:01:30;24.60;46.00
909;DHT22;441;51.192;6.788;2022-12-04T17:03:59;24.70;46.10
909;DHT22;441;51.192;6.788;2022-12-04T17:06:25;24.70;46.00